createdAt,value
2018-06-18T00:01:47.767Z,16.26
2018-06-18T00:04:14.663Z,16.17
2018-06-18T00:06:41.595Z,16.16
2018-06-18T00:09:09.831Z,16.16
2018-06-18T00:11:36.723Z,16.20
2018-06-18T00:14:03.724Z,16.23
2018-06-18T00:16:30.638Z,16.23
2018-06-18T00:18:57.524Z,16.24
2018-06-18T00:21:24.418Z,16.24
2018-06-18T00:23:51.340Z,16.25
2018-06-18T00:26:18.447Z,16.25
2018-06-18T00:28:45.391Z,16.27
2018-06-18T00:31:12.287Z,16.27
2018-06-18T00:33:39.207Z,16.26
2018-06-18T00:36:06.131Z,16.26
2018-06-18T00:38:33.031Z,16.26
2018-06-18T00:40:59.938Z,16.25
2018-06-18T00:43:26.918Z,16.24
2018-06-18T00:45:53.846Z,16.22
2018-06-18T00:48:20.768Z,16.21
2018-06-18T00:50:47.759Z,16.20
2018-06-18T00:53:14.715Z,16.17
2018-06-18T00:55:53.198Z,16.16
2018-06-18T00:58:20.123Z,16.17
2018-06-18T01:00:47.650Z,16.19
2018-06-18T01:03:14.705Z,16.17
2018-06-18T01:05:41.650Z,16.18
2018-06-18T01:08:08.602Z,16.16
2018-06-18T01:10:35.498Z,16.16
2018-06-18T01:13:02.434Z,16.16
2018-06-18T01:15:29.339Z,16.15
2018-06-18T01:17:56.255Z,16.15
2018-06-18T01:20:23.299Z,16.16
2018-06-18T01:22:59.391Z,16.16
2018-06-18T01:25:26.289Z,16.13
2018-06-18T01:27:53.260Z,16.13
2018-06-18T01:30:20.203Z,16.13
2018-06-18T01:32:47.135Z,16.11
2018-06-18T01:35:14.040Z,16.08
2018-06-18T01:37:41.023Z,16.07
2018-06-18T01:40:07.907Z,16.03
2018-06-18T01:42:35.150Z,15.97
2018-06-18T01:45:02.615Z,15.94
2018-06-18T01:47:29.543Z,15.90
2018-06-18T01:49:56.439Z,15.86
2018-06-18T01:52:23.343Z,15.81
2018-06-18T01:54:50.307Z,15.78
2018-06-18T01:57:17.221Z,15.76
2018-06-18T01:59:44.158Z,15.74
2018-06-18T02:02:11.035Z,15.74
2018-06-18T02:04:37.952Z,15.72
2018-06-18T02:07:04.862Z,15.71
2018-06-18T02:09:31.758Z,15.69
2018-06-18T02:11:58.736Z,15.68
2018-06-18T02:14:25.647Z,15.69
2018-06-18T02:16:52.555Z,15.67
2018-06-18T02:19:19.544Z,15.67
2018-06-18T02:21:46.548Z,15.68
2018-06-18T02:24:13.479Z,15.69
2018-06-18T02:26:40.423Z,15.69
2018-06-18T02:29:13.276Z,15.69
2018-06-18T02:31:46.796Z,15.66
2018-06-18T02:35:19.875Z,15.65
2018-06-18T02:37:52.499Z,15.62
2018-06-18T02:40:25.278Z,15.63
2018-06-18T02:42:52.188Z,15.62
2018-06-18T02:45:19.120Z,15.64
2018-06-18T02:47:46.025Z,15.65
2018-06-18T02:50:13.023Z,15.66
2018-06-18T02:52:39.987Z,15.68
2018-06-18T02:55:06.954Z,15.68
2018-06-18T02:57:34.146Z,15.67
2018-06-18T03:00:01.046Z,15.65
2018-06-18T03:02:27.967Z,15.62
2018-06-18T03:04:54.912Z,15.60
2018-06-18T03:07:21.807Z,15.62
2018-06-18T03:09:48.744Z,15.61
2018-06-18T03:12:15.655Z,15.64
2018-06-18T03:14:42.602Z,15.65
2018-06-18T03:17:09.499Z,15.70
2018-06-18T03:19:42.372Z,15.75
2018-06-18T03:22:15.054Z,15.77
2018-06-18T03:24:47.851Z,15.78
2018-06-18T03:27:20.511Z,15.77
2018-06-18T03:29:47.422Z,15.79
2018-06-18T03:32:16.267Z,15.83
2018-06-18T03:34:43.270Z,15.82
2018-06-18T03:37:12.496Z,15.82
2018-06-18T03:39:39.381Z,15.82
2018-06-18T03:42:06.709Z,15.84
2018-06-18T03:44:37.218Z,15.84
2018-06-18T03:47:13.139Z,15.84
2018-06-18T03:49:40.295Z,15.85
2018-06-18T03:52:07.211Z,15.86
2018-06-18T03:54:34.114Z,15.88
2018-06-18T03:57:01.144Z,15.91
2018-06-18T03:59:28.130Z,15.92
2018-06-18T04:02:03.427Z,15.90
2018-06-18T04:04:47.211Z,15.89
2018-06-18T04:07:21.687Z,15.88
2018-06-18T04:09:54.267Z,15.92
2018-06-18T04:12:21.260Z,15.94
2018-06-18T04:14:48.340Z,15.96
2018-06-18T04:17:15.254Z,15.98
2018-06-18T04:19:42.143Z,15.98
2018-06-18T04:22:09.159Z,16.01
2018-06-18T04:24:36.138Z,16.06
2018-06-18T04:27:03.160Z,16.07
2018-06-18T04:29:30.306Z,16.12
2018-06-18T04:31:57.203Z,16.16
2018-06-18T04:34:34.475Z,16.19
2018-06-18T04:37:01.407Z,16.23
2018-06-18T04:39:28.664Z,16.26
2018-06-18T04:42:01.239Z,16.33
2018-06-18T04:44:34.012Z,16.33
2018-06-18T04:47:06.753Z,16.40
2018-06-18T04:49:39.337Z,16.43
2018-06-18T04:52:06.262Z,16.45
2018-06-18T04:54:33.166Z,16.49
2018-06-18T04:57:00.838Z,16.52
2018-06-18T04:59:27.738Z,16.55
2018-06-18T05:01:54.682Z,16.59
2018-06-18T05:04:21.555Z,16.64
2018-06-18T05:06:48.494Z,16.68
2018-06-18T05:09:41.439Z,16.77
2018-06-18T05:12:08.355Z,16.86
2018-06-18T05:14:35.238Z,16.90
2018-06-18T05:17:02.367Z,16.94
2018-06-18T05:19:29.339Z,16.97
2018-06-18T05:21:56.239Z,17.01
2018-06-18T05:24:23.131Z,17.07
2018-06-18T05:26:51.886Z,17.10
2018-06-18T05:29:20.246Z,17.08
2018-06-18T05:31:47.262Z,17.02
2018-06-18T05:34:16.787Z,16.95
2018-06-18T05:36:43.754Z,16.89
2018-06-18T05:39:10.674Z,16.83
2018-06-18T05:41:37.610Z,16.80
2018-06-18T05:44:04.499Z,16.85
2018-06-18T05:46:31.411Z,16.97
2018-06-18T05:48:58.335Z,17.21
2018-06-18T05:51:25.243Z,17.50
2018-06-18T05:53:52.159Z,17.70
2018-06-18T05:56:19.087Z,17.88
2018-06-18T05:58:45.998Z,18.00
2018-06-18T06:01:13.143Z,18.17
2018-06-18T06:03:40.134Z,18.30
2018-06-18T06:06:07.040Z,18.42
2018-06-18T06:08:34.013Z,18.45
2018-06-18T06:11:00.943Z,18.37
2018-06-18T06:13:27.930Z,18.31
2018-06-18T06:15:54.827Z,18.29
2018-06-18T06:18:21.740Z,18.32
2018-06-18T06:20:54.987Z,18.46
2018-06-18T06:23:21.919Z,18.64
2018-06-18T06:25:49.376Z,18.83
2018-06-18T06:28:16.307Z,18.93
2018-06-18T06:30:43.215Z,19.04
2018-06-18T06:33:10.127Z,19.15
2018-06-18T06:35:38.836Z,19.24
2018-06-18T06:38:05.770Z,19.26
2018-06-18T06:40:32.732Z,19.33
2018-06-18T06:42:59.776Z,19.39
2018-06-18T06:45:26.670Z,19.52
2018-06-18T06:47:53.600Z,19.61
2018-06-18T06:50:20.503Z,19.61
2018-06-18T06:52:47.411Z,19.67
2018-06-18T06:55:14.298Z,19.71
2018-06-18T06:57:41.213Z,19.77
2018-06-18T07:00:08.100Z,19.83
2018-06-18T07:02:34.987Z,19.91
2018-06-18T07:05:02.088Z,19.98
2018-06-18T07:07:28.994Z,20.07
2018-06-18T07:09:55.936Z,20.05
2018-06-18T07:12:22.855Z,20.13
2018-06-18T07:14:49.756Z,20.09
2018-06-18T07:17:16.674Z,20.04
2018-06-18T07:19:43.654Z,19.96
2018-06-18T07:22:10.551Z,19.91
2018-06-18T07:24:37.448Z,19.97
2018-06-18T07:27:04.438Z,20.02
2018-06-18T07:29:31.371Z,20.14
2018-06-18T07:31:58.556Z,20.17
2018-06-18T07:34:25.443Z,20.16
2018-06-18T07:36:52.658Z,20.12
2018-06-18T07:39:19.562Z,20.02
2018-06-18T07:41:46.467Z,20.03
2018-06-18T07:44:13.447Z,20.08
2018-06-18T07:46:40.347Z,20.13
2018-06-18T07:49:07.259Z,20.19
2018-06-18T07:51:34.217Z,20.23
2018-06-18T07:54:01.088Z,20.22
2018-06-18T07:56:28.018Z,20.14
2018-06-18T07:58:54.926Z,20.15
2018-06-18T08:01:21.855Z,20.26
2018-06-18T08:03:48.766Z,20.30
2018-06-18T08:06:15.651Z,20.44
2018-06-18T08:08:42.639Z,20.61
2018-06-18T08:11:09.518Z,20.69
2018-06-18T08:13:36.419Z,20.80
2018-06-18T08:16:03.305Z,20.98
2018-06-18T08:18:30.224Z,21.20
2018-06-18T08:20:57.127Z,21.39
2018-06-18T08:23:24.375Z,21.52
2018-06-18T08:25:51.363Z,21.67
2018-06-18T08:28:18.307Z,21.76
2018-06-18T08:30:45.191Z,21.74
2018-06-18T08:33:12.083Z,21.83
2018-06-18T08:35:38.971Z,21.91
2018-06-18T08:38:05.879Z,21.93
2018-06-18T08:40:32.817Z,21.82
2018-06-18T08:42:59.872Z,21.71
2018-06-18T08:45:26.775Z,21.61
2018-06-18T08:47:53.722Z,21.57
2018-06-18T08:50:26.323Z,21.63
2018-06-18T08:52:58.940Z,21.78
2018-06-18T08:57:33.123Z,21.94
2018-06-18T09:00:05.823Z,22.21
2018-06-18T09:02:33.142Z,22.36
2018-06-18T09:05:05.880Z,22.38
2018-06-18T09:07:37.414Z,22.41
2018-06-18T09:10:04.708Z,22.31
2018-06-18T09:12:31.600Z,22.18
2018-06-18T09:14:58.483Z,22.13
2018-06-18T09:17:25.401Z,22.04
2018-06-18T09:19:52.296Z,22.02
2018-06-18T09:22:19.186Z,22.14
2018-06-18T09:24:46.071Z,22.14
2018-06-18T09:27:14.027Z,22.33
2018-06-18T09:29:46.547Z,22.46
2018-06-18T09:32:13.902Z,22.37
2018-06-18T09:34:41.171Z,22.29
2018-06-18T09:37:08.325Z,22.12
2018-06-18T09:39:35.275Z,21.97
2018-06-18T09:42:02.845Z,21.92
2018-06-18T09:44:29.747Z,22.01
2018-06-18T09:46:57.259Z,22.22
2018-06-18T09:51:31.516Z,22.56
2018-06-18T09:54:04.032Z,22.87
2018-06-18T09:56:36.663Z,22.91
2018-06-18T09:59:09.514Z,22.88
2018-06-18T10:01:36.570Z,22.88
2018-06-18T10:04:04.195Z,22.93
2018-06-18T10:06:34.198Z,23.14
2018-06-18T10:09:05.135Z,23.49
2018-06-18T10:11:32.544Z,23.73
2018-06-18T10:13:59.456Z,23.89
2018-06-18T10:16:26.400Z,24.03
2018-06-18T10:18:53.768Z,24.00
2018-06-18T10:21:20.659Z,24.04
2018-06-18T10:23:47.594Z,24.03
2018-06-18T10:26:14.488Z,23.98
2018-06-18T10:28:41.503Z,23.89
2018-06-18T10:31:08.516Z,23.82
2018-06-18T10:33:41.256Z,23.70
2018-06-18T10:38:21.478Z,23.58
2018-06-18T10:40:54.194Z,23.34
2018-06-18T10:43:24.275Z,23.20
2018-06-18T10:45:51.286Z,22.88
2018-06-18T10:48:18.383Z,22.94
2018-06-18T10:50:45.298Z,23.05
2018-06-18T10:53:12.219Z,23.01
2018-06-18T10:55:39.123Z,22.88
2018-06-18T10:58:06.052Z,22.66
2018-06-18T11:00:32.939Z,22.40
2018-06-18T11:02:59.865Z,22.32
2018-06-18T11:05:32.631Z,22.25
2018-06-18T11:07:59.507Z,22.20
2018-06-18T11:10:26.397Z,22.19
2018-06-18T11:12:53.654Z,22.21
2018-06-18T11:15:20.595Z,22.28
2018-06-18T11:17:53.156Z,22.37
2018-06-18T11:20:25.692Z,22.47
2018-06-18T11:22:58.294Z,22.51
2018-06-18T11:25:30.735Z,22.39
2018-06-18T11:27:57.679Z,22.35
2018-06-18T11:30:24.579Z,22.52
2018-06-18T11:32:51.498Z,22.65
2018-06-18T11:35:18.391Z,22.85
2018-06-18T11:37:45.281Z,22.93
2018-06-18T11:40:12.192Z,23.01
2018-06-18T11:42:39.114Z,23.02
2018-06-18T11:45:06.044Z,23.04
2018-06-18T11:47:33.013Z,23.19
2018-06-18T11:50:00.436Z,23.24
2018-06-18T11:52:27.394Z,23.22
2018-06-18T11:54:54.375Z,23.34
2018-06-18T11:57:21.294Z,23.52
2018-06-18T11:59:53.983Z,23.54
2018-06-18T12:02:26.503Z,23.42
2018-06-18T12:04:59.287Z,23.22
2018-06-18T12:07:31.814Z,23.09
2018-06-18T12:09:58.748Z,22.89
2018-06-18T12:12:25.638Z,22.76
2018-06-18T12:14:52.552Z,22.74
2018-06-18T12:17:19.447Z,22.86
2018-06-18T12:19:46.331Z,22.90
2018-06-18T12:22:13.299Z,22.82
2018-06-18T12:24:40.194Z,22.76
2018-06-18T12:27:08.403Z,22.75
2018-06-18T12:29:35.294Z,22.75
2018-06-18T12:32:02.231Z,22.61
2018-06-18T12:34:29.163Z,22.46
2018-06-18T12:36:56.113Z,22.25
2018-06-18T12:39:23.016Z,22.16
2018-06-18T12:41:54.499Z,22.18
2018-06-18T12:44:21.382Z,22.23
2018-06-18T12:46:54.218Z,22.23
2018-06-18T12:49:27.790Z,22.36
2018-06-18T12:52:00.514Z,22.46
2018-06-18T12:54:33.227Z,22.75
2018-06-18T12:57:02.876Z,23.14
2018-06-18T12:59:29.792Z,23.41
2018-06-18T13:02:01.787Z,23.66
2018-06-18T13:04:30.592Z,23.89
2018-06-18T13:06:57.571Z,24.14
2018-06-18T13:09:24.473Z,24.51
2018-06-18T13:11:51.708Z,24.68
2018-06-18T13:14:18.599Z,24.79
2018-06-18T13:16:45.538Z,24.91
2018-06-18T13:19:12.482Z,24.88
2018-06-18T13:21:39.415Z,24.66
2018-06-18T13:24:06.330Z,24.53
2018-06-18T13:26:33.267Z,24.60
2018-06-18T13:29:00.181Z,24.81
2018-06-18T13:31:27.090Z,24.96
2018-06-18T13:33:53.983Z,24.94
2018-06-18T13:36:20.916Z,24.96
2018-06-18T13:38:53.631Z,25.03
2018-06-18T13:41:26.396Z,25.01
2018-06-18T13:43:59.114Z,24.88
2018-06-18T13:46:31.853Z,24.61
2018-06-18T13:48:58.747Z,24.30
2018-06-18T13:51:26.597Z,24.08
2018-06-18T13:53:53.699Z,24.03
2018-06-18T13:56:20.630Z,24.08
2018-06-18T13:58:47.577Z,24.26
2018-06-18T14:01:14.495Z,24.26
2018-06-18T14:03:41.874Z,24.15
2018-06-18T14:06:08.975Z,24.14
2018-06-18T14:08:35.869Z,24.25
2018-06-18T14:11:02.798Z,24.32
2018-06-18T14:13:30.016Z,24.39
2018-06-18T14:15:57.896Z,24.46
2018-06-18T14:18:24.830Z,24.48
2018-06-18T14:20:51.670Z,24.55
2018-06-18T14:23:18.591Z,24.56
2018-06-18T14:25:45.495Z,24.53
2018-06-18T14:28:12.435Z,24.57
2018-06-18T14:30:44.936Z,24.68
2018-06-18T14:33:17.715Z,24.66
2018-06-18T14:35:50.335Z,24.80
2018-06-18T14:38:23.055Z,25.07
2018-06-18T14:40:49.986Z,25.32
2018-06-18T14:43:16.927Z,25.53
2018-06-18T14:45:43.851Z,25.59
2018-06-18T14:48:10.756Z,25.57
2018-06-18T14:50:37.642Z,25.51
2018-06-18T14:53:04.751Z,25.37
2018-06-18T14:55:31.647Z,25.29
2018-06-18T14:57:58.587Z,25.24
2018-06-18T15:00:28.228Z,25.18
2018-06-18T15:02:55.319Z,25.14
2018-06-18T15:05:23.553Z,25.13
2018-06-18T15:07:50.491Z,25.12
2018-06-18T15:10:17.416Z,25.24
2018-06-18T15:12:49.166Z,25.33
2018-06-18T15:15:21.988Z,25.35
2018-06-18T15:17:49.483Z,25.38
2018-06-18T15:20:16.463Z,25.38
2018-06-18T15:22:47.850Z,25.41
2018-06-18T15:25:15.139Z,25.27
2018-06-18T15:27:41.991Z,25.06
2018-06-18T15:30:09.006Z,24.82
2018-06-18T15:32:35.902Z,24.75
2018-06-18T15:35:02.826Z,24.64
2018-06-18T15:37:29.747Z,24.73
2018-06-18T15:39:56.648Z,24.72
2018-06-18T15:42:23.567Z,24.75
2018-06-18T15:44:50.470Z,24.71
2018-06-18T15:47:17.555Z,24.67
2018-06-18T15:49:44.467Z,24.63
2018-06-18T15:52:11.351Z,24.58
2018-06-18T15:54:38.272Z,24.49
2018-06-18T15:57:05.254Z,24.44
2018-06-18T15:59:32.107Z,24.45
2018-06-18T16:01:59.936Z,24.49
2018-06-18T16:04:26.811Z,24.55
2018-06-18T16:06:53.715Z,24.55
2018-06-18T16:09:20.659Z,24.48
2018-06-18T16:11:47.556Z,24.30
2018-06-18T16:14:14.464Z,24.12
2018-06-18T16:16:41.348Z,24.02
2018-06-18T16:19:08.299Z,23.97
2018-06-18T16:21:35.273Z,23.96
2018-06-18T16:24:02.183Z,23.92
2018-06-18T16:26:29.058Z,23.96
2018-06-18T16:28:56.130Z,24.01
2018-06-18T16:31:23.027Z,24.04
2018-06-18T16:33:50.917Z,24.02
2018-06-18T16:36:17.773Z,23.93
2018-06-18T16:38:44.718Z,23.88
2018-06-18T16:41:11.619Z,23.85
2018-06-18T16:43:38.580Z,23.83
2018-06-18T16:46:05.780Z,23.83
2018-06-18T16:48:32.696Z,23.84
2018-06-18T16:50:59.652Z,23.82
2018-06-18T16:53:26.671Z,23.84
2018-06-18T16:55:53.620Z,23.83
2018-06-18T16:58:20.540Z,23.86
2018-06-18T17:00:47.502Z,23.86
2018-06-18T17:03:14.395Z,23.88
2018-06-18T17:05:41.295Z,23.91
2018-06-18T17:08:08.187Z,23.96
2018-06-18T17:10:35.088Z,24.03
2018-06-18T17:13:01.978Z,24.04
2018-06-18T17:15:28.890Z,24.02
2018-06-18T17:17:55.831Z,23.94
2018-06-18T17:20:22.763Z,23.84
2018-06-18T17:22:50.311Z,23.64
2018-06-18T17:25:17.211Z,23.44
2018-06-18T17:27:44.088Z,23.29
2018-06-18T17:30:11.135Z,23.21
2018-06-18T17:32:38.114Z,23.16
2018-06-18T17:35:05.055Z,23.13
2018-06-18T17:37:31.963Z,23.09
2018-06-18T17:39:58.872Z,23.05
2018-06-18T17:42:25.759Z,23.03
2018-06-18T17:44:52.660Z,23.11
2018-06-18T17:47:19.550Z,23.13
2018-06-18T17:49:46.575Z,23.14
2018-06-18T17:52:13.531Z,23.15
2018-06-18T17:54:40.438Z,23.09
2018-06-18T17:57:07.576Z,22.96
2018-06-18T17:59:34.547Z,22.82
2018-06-18T18:02:01.429Z,22.71
2018-06-18T18:04:28.327Z,22.62
2018-06-18T18:06:55.258Z,22.55
2018-06-18T18:09:22.166Z,22.49
2018-06-18T18:11:49.063Z,22.42
2018-06-18T18:14:15.963Z,22.39
2018-06-18T18:16:42.910Z,22.34
2018-06-18T18:19:09.786Z,22.28
2018-06-18T18:21:36.723Z,22.17
2018-06-18T18:24:03.631Z,22.09
2018-06-18T18:26:30.622Z,22.05
2018-06-18T18:28:57.507Z,21.97
2018-06-18T18:31:24.626Z,21.94
2018-06-18T18:33:51.549Z,21.85
2018-06-18T18:36:18.424Z,21.80
2018-06-18T18:38:45.331Z,21.77
2018-06-18T18:41:12.239Z,21.74
2018-06-18T18:43:39.122Z,21.68
2018-06-18T18:46:06.059Z,21.63
2018-06-18T18:48:32.985Z,21.32
2018-06-18T18:50:59.893Z,21.08
2018-06-18T18:53:26.802Z,20.91
2018-06-18T18:56:06.180Z,20.75
2018-06-18T18:59:39.458Z,20.46
2018-06-18T19:02:06.735Z,20.35
2018-06-18T19:04:37.682Z,20.18
2018-06-18T19:07:05.451Z,20.04
2018-06-18T19:09:36.384Z,19.96
2018-06-18T19:12:03.612Z,19.88
2018-06-18T19:14:30.522Z,19.84
2018-06-18T19:16:57.428Z,19.81
2018-06-18T19:19:27.543Z,19.81
2018-06-18T19:21:54.455Z,19.82
2018-06-18T19:24:21.384Z,19.82
2018-06-18T19:26:48.515Z,19.83
2018-06-18T19:29:15.396Z,19.78
2018-06-18T19:31:42.535Z,19.72
2018-06-18T19:34:14.046Z,19.67
2018-06-18T19:36:43.746Z,19.58
2018-06-18T19:39:11.979Z,19.51
2018-06-18T19:41:39.116Z,19.44
2018-06-18T19:44:06.011Z,19.37
2018-06-18T19:46:37.085Z,19.33
2018-06-18T19:49:08.287Z,19.30
2018-06-18T19:51:35.271Z,19.26
2018-06-18T19:54:02.165Z,19.19
2018-06-18T19:56:29.126Z,19.14
2018-06-18T19:58:55.969Z,19.11
2018-06-18T20:01:22.919Z,19.11
2018-06-18T20:03:49.815Z,19.08
2018-06-18T20:06:16.739Z,19.04
2018-06-18T20:08:43.635Z,19.03
2018-06-18T20:11:10.539Z,19.02
2018-06-18T20:13:37.444Z,18.99
2018-06-18T20:16:04.326Z,18.96
2018-06-18T20:18:31.248Z,18.94
2018-06-18T20:20:58.162Z,18.93
2018-06-18T20:23:26.012Z,18.91
2018-06-18T20:26:03.410Z,18.88
2018-06-18T20:28:30.329Z,18.84
2018-06-18T20:30:57.486Z,18.81
2018-06-18T20:33:24.431Z,18.77
2018-06-18T20:35:56.846Z,18.76
2018-06-18T20:38:23.747Z,18.74
2018-06-18T20:40:50.687Z,18.73
2018-06-18T20:43:18.219Z,18.70
2018-06-18T20:45:45.144Z,18.67
2018-06-18T20:48:12.167Z,18.62
2018-06-18T20:50:39.078Z,18.62
2018-06-18T20:53:05.999Z,18.62
2018-06-18T20:55:32.891Z,18.62
2018-06-18T20:57:59.805Z,18.62
2018-06-18T21:00:26.738Z,18.60
2018-06-18T21:02:53.739Z,18.57
2018-06-18T21:05:20.835Z,18.54
2018-06-18T21:07:47.801Z,18.53
2018-06-18T21:10:14.662Z,18.50
2018-06-18T21:12:41.730Z,18.52
2018-06-18T21:15:08.746Z,18.50
2018-06-18T21:17:35.707Z,18.47
2018-06-18T21:20:02.644Z,18.46
2018-06-18T21:22:29.791Z,18.48
2018-06-18T21:24:56.715Z,18.47
2018-06-18T21:27:23.600Z,18.47
2018-06-18T21:29:50.803Z,18.46
2018-06-18T21:32:17.694Z,18.46
2018-06-18T21:34:44.603Z,18.46
2018-06-18T21:37:11.503Z,18.44
2018-06-18T21:39:38.393Z,18.44
2018-06-18T21:42:05.375Z,18.45
2018-06-18T21:44:34.799Z,18.44
2018-06-18T21:47:01.715Z,18.45
2018-06-18T21:49:28.623Z,18.45
2018-06-18T21:51:55.601Z,18.45
2018-06-18T21:54:22.526Z,18.44
2018-06-18T21:56:49.408Z,18.43
2018-06-18T21:59:16.445Z,18.43
2018-06-18T22:01:44.723Z,18.45
2018-06-18T22:04:12.159Z,18.43
2018-06-18T22:06:39.059Z,18.42
2018-06-18T22:09:15.179Z,18.40
2018-06-18T22:11:43.783Z,18.37
2018-06-18T22:14:10.803Z,18.35
2018-06-18T22:16:39.416Z,18.34
2018-06-18T22:19:06.544Z,18.33
2018-06-18T22:21:33.475Z,18.32
2018-06-18T22:24:00.555Z,18.28
2018-06-18T22:26:27.451Z,18.26
2018-06-18T22:28:54.363Z,18.24
2018-06-18T22:31:21.299Z,18.23
2018-06-18T22:33:48.243Z,18.22
2018-06-18T22:36:15.286Z,18.21
2018-06-18T22:38:42.315Z,18.20
2018-06-18T22:41:09.191Z,18.20
2018-06-18T22:43:36.180Z,18.17
2018-06-18T22:46:03.074Z,18.13
2018-06-18T22:48:30.020Z,18.11
2018-06-18T22:50:56.918Z,18.12
2018-06-18T22:53:23.819Z,18.10
2018-06-18T22:55:50.831Z,18.08
2018-06-18T22:58:17.731Z,18.03
2018-06-18T23:00:44.684Z,18.03
2018-06-18T23:03:11.734Z,18.03
2018-06-18T23:05:38.630Z,18.01
2018-06-18T23:08:05.623Z,17.97
2018-06-18T23:10:32.543Z,17.89
2018-06-18T23:12:59.459Z,17.85
2018-06-18T23:15:26.419Z,17.81
2018-06-18T23:17:53.326Z,17.76
2018-06-18T23:20:20.222Z,17.71
2018-06-18T23:22:47.231Z,17.65
2018-06-18T23:25:14.262Z,17.61
2018-06-18T23:27:41.162Z,17.57
2018-06-18T23:30:08.199Z,17.54
2018-06-18T23:32:35.095Z,17.50
2018-06-18T23:35:02.045Z,17.47
2018-06-18T23:37:28.955Z,17.42
2018-06-18T23:39:55.892Z,17.39
2018-06-18T23:42:23.071Z,17.34
2018-06-18T23:44:50.214Z,17.31
2018-06-18T23:47:17.147Z,17.29
2018-06-18T23:49:44.307Z,17.24
2018-06-18T23:52:11.243Z,17.22
2018-06-18T23:54:38.155Z,17.19
2018-06-18T23:57:05.068Z,17.16
2018-06-18T23:59:31.974Z,17.13
